sensor_id;sensor_type;location;lat;lon;timestamp;pressure;altitude;pressure_sealevel;temperature;humidity
18985;BME280;9626;52.552;13.436;2023-02-26T00:01:23;100608.13;;;-0.78;100.00
18985;BME280;9626;52.552;13.436;2023-02-26T00:03:50;100609.00;;;-0.78;100.00
18985;BME280;9626;52.552;13.436;2023-02-26T00:06:17;100620.16;;;-0.82;100.00
18985;BME280;9626;52.552;13.436;2023-02-26T00:08:44;100626.22;;;-0.83;100.00
18985;BME280;9626;52.552;13.436;2023-02-26T00:11:10;100621.09;;;-0.80;100.00
18985;BME280;9626;52.552;13.436;2023-02-26T00:13:38;100623.81;;;-0.74;100.00
18985;BME280;9626;52.552;13.436;2023-02-26T00:18:55;100640.41;;;-0.70;100.00
18985;BME280;9626;52.552;13.436;2023-02-26T00:21:22;100641.38;;;-0.66;100.00
18985;BME280;9626;52.552;13.436;2023-02-26T00:23:49;100643.16;;;-0.64;100.00
18985;BME280;9626;52.552;13.436;2023-02-26T00:26:15;100646.47;;;-0.70;100.00
18985;BME280;9626;52.552;13.436;2023-02-26T00:28:42;100649.97;;;-0.69;100.00
18985;BME280;9626;52.552;13.436;2023-02-26T00:31:08;100653.53;;;-0.65;100.00
18985;BME280;9626;52.552;13.436;2023-02-26T00:33:35;100660.44;;;-0.66;100.00
18985;BME280;9626;52.552;13.436;2023-02-26T00:36:29;100655.25;;;-0.66;100.00
18985;BME280;9626;52.552;13.436;2023-02-26T00:41:37;100672.31;;;-0.77;100.00
18985;BME280;9626;52.552;13.436;2023-02-26T00:44:04;100668.00;;;-0.75;100.00
18985;BME280;9626;52.552;13.436;2023-02-26T00:46:38;100676.66;;;-0.76;100.00
18985;BME280;9626;52.552;13.436;2023-02-26T00:49:27;100677.59;;;-0.73;100.00
18985;BME280;9626;52.552;13.436;2023-02-26T00:52:03;100677.59;;;-0.73;100.00
18985;BME280;9626;52.552;13.436;2023-02-26T00:54:30;100683.75;;;-0.71;100.00
18985;BME280;9626;52.552;13.436;2023-02-26T00:56:57;100685.47;;;-0.70;100.00
18985;BME280;9626;52.552;13.436;2023-02-26T00:59:25;100677.78;;;-0.66;100.00
18985;BME280;9626;52.552;13.436;2023-02-26T01:01:51;100691.88;;;-0.58;100.00
18985;BME280;9626;52.552;13.436;2023-02-26T01:04:20;100691.88;;;-0.58;100.00
18985;BME280;9626;52.552;13.436;2023-02-26T01:06:49;100691.03;;;-0.57;100.00
18985;BME280;9626;52.552;13.436;2023-02-26T01:09:26;100692.69;;;-0.59;100.00
18985;BME280;9626;52.552;13.436;2023-02-26T01:11:54;100689.28;;;-0.57;100.00
18985;BME280;9626;52.552;13.436;2023-02-26T01:14:20;100690.41;;;-0.47;100.00
18985;BME280;9626;52.552;13.436;2023-02-26T01:16:56;100688.78;;;-0.43;100.00
18985;BME280;9626;52.552;13.436;2023-02-26T01:19:30;100705.00;;;-0.52;100.00
18985;BME280;9626;52.552;13.436;2023-02-26T01:22:09;100704.94;;;-0.55;100.00
18985;BME280;9626;52.552;13.436;2023-02-26T01:24:38;100705.97;;;-0.48;100.00
18985;BME280;9626;52.552;13.436;2023-02-26T01:27:04;100709.38;;;-0.51;100.00
18985;BME280;9626;52.552;13.436;2023-02-26T01:29:31;100699.91;;;-0.49;100.00
18985;BME280;9626;52.552;13.436;2023-02-26T01:32:07;100709.31;;;-0.54;100.00
18985;BME280;9626;52.552;13.436;2023-02-26T01:42:51;100715.44;;;-0.51;100.00
18985;BME280;9626;52.552;13.436;2023-02-26T01:45:33;100719.97;;;-0.45;100.00
18985;BME280;9626;52.552;13.436;2023-02-26T01:48:11;100717.25;;;-0.48;100.00
18985;BME280;9626;52.552;13.436;2023-02-26T01:50:43;100717.22;;;-0.49;100.00
18985;BME280;9626;52.552;13.436;2023-02-26T01:53:23;100721.47;;;-0.53;100.00
18985;BME280;9626;52.552;13.436;2023-02-26T01:56:17;100722.38;;;-0.51;100.00
18985;BME280;9626;52.552;13.436;2023-02-26T01:58:43;100731.06;;;-0.51;100.00
18985;BME280;9626;52.552;13.436;2023-02-26T02:01:11;100731.91;;;-0.53;100.00
18985;BME280;9626;52.552;13.436;2023-02-26T02:03:38;100733.00;;;-0.43;100.00
18985;BME280;9626;52.552;13.436;2023-02-26T02:06:18;100742.44;;;-0.47;100.00
18985;BME280;9626;52.552;13.436;2023-02-26T02:08:45;100735.56;;;-0.45;100.00
18985;BME280;9626;52.552;13.436;2023-02-26T02:11:12;100744.03;;;-0.52;100.00
18985;BME280;9626;52.552;13.436;2023-02-26T02:16:54;100746.84;;;-0.44;100.00
18985;BME280;9626;52.552;13.436;2023-02-26T02:31:07;100776.84;;;-0.25;100.00
18985;BME280;9626;52.552;13.436;2023-02-26T02:41:50;100784.38;;;-0.35;100.00
18985;BME280;9626;52.552;13.436;2023-02-26T02:44:20;100782.50;;;-0.40;100.00
18985;BME280;9626;52.552;13.436;2023-02-26T02:46:51;100792.81;;;-0.45;100.00
18985;BME280;9626;52.552;13.436;2023-02-26T02:49:26;100795.34;;;-0.46;100.00
18985;BME280;9626;52.552;13.436;2023-02-26T02:51:59;100791.03;;;-0.46;100.00
18985;BME280;9626;52.552;13.436;2023-02-26T02:54:49;100793.88;;;-0.38;100.00
18985;BME280;9626;52.552;13.436;2023-02-26T02:57:33;100796.50;;;-0.37;100.00
18985;BME280;9626;52.552;13.436;2023-02-26T03:00:04;100799.75;;;-0.44;100.00
18985;BME280;9626;52.552;13.436;2023-02-26T03:05:22;100804.78;;;-0.52;100.00
18985;BME280;9626;52.552;13.436;2023-02-26T03:08:03;100806.44;;;-0.54;100.00
18985;BME280;9626;52.552;13.436;2023-02-26T03:10:30;100813.38;;;-0.54;100.00
18985;BME280;9626;52.552;13.436;2023-02-26T03:12:56;100816.81;;;-0.55;100.00
18985;BME280;9626;52.552;13.436;2023-02-26T03:15:34;100820.38;;;-0.52;100.00
18985;BME280;9626;52.552;13.436;2023-02-26T03:21:38;100821.94;;;-0.58;100.00
18985;BME280;9626;52.552;13.436;2023-02-26T03:30:05;100839.19;;;-0.60;100.00
18985;BME280;9626;52.552;13.436;2023-02-26T03:32:30;100844.56;;;-0.56;100.00
18985;BME280;9626;52.552;13.436;2023-02-26T03:35:08;100853.16;;;-0.58;100.00
18985;BME280;9626;52.552;13.436;2023-02-26T03:37:44;100860.00;;;-0.60;100.00
18985;BME280;9626;52.552;13.436;2023-02-26T03:40:16;100856.66;;;-0.56;100.00
18985;BME280;9626;52.552;13.436;2023-02-26T03:42:49;100867.78;;;-0.62;100.00
18985;BME280;9626;52.552;13.436;2023-02-26T03:45:22;100867.69;;;-0.65;100.00
18985;BME280;9626;52.552;13.436;2023-02-26T03:47:51;100871.31;;;-0.60;100.00
18985;BME280;9626;52.552;13.436;2023-02-26T03:52:46;100888.97;;;-0.48;100.00
18985;BME280;9626;52.552;13.436;2023-02-26T03:55:21;100890.00;;;-0.43;100.00
18985;BME280;9626;52.552;13.436;2023-02-26T03:57:48;100893.56;;;-0.39;100.00
18985;BME280;9626;52.552;13.436;2023-02-26T04:00:15;100899.66;;;-0.39;100.00
18985;BME280;9626;52.552;13.436;2023-02-26T04:05:39;100906.69;;;-0.35;100.00
18985;BME280;9626;52.552;13.436;2023-02-26T04:08:07;100911.94;;;-0.33;100.00
18985;BME280;9626;52.552;13.436;2023-02-26T04:10:39;100920.44;;;-0.40;100.00
18985;BME280;9626;52.552;13.436;2023-02-26T04:13:07;100922.19;;;-0.39;100.00
18985;BME280;9626;52.552;13.436;2023-02-26T04:15:33;100920.47;;;-0.39;100.00
18985;BME280;9626;52.552;13.436;2023-02-26T04:17:59;100921.41;;;-0.37;100.00
18985;BME280;9626;52.552;13.436;2023-02-26T04:20:25;100924.09;;;-0.33;100.00
18985;BME280;9626;52.552;13.436;2023-02-26T04:22:51;100931.81;;;-0.37;100.00
18985;BME280;9626;52.552;13.436;2023-02-26T04:25:17;100930.03;;;-0.38;100.00
18985;BME280;9626;52.552;13.436;2023-02-26T04:27:43;100929.81;;;-0.45;100.00
18985;BME280;9626;52.552;13.436;2023-02-26T04:30:10;100933.16;;;-0.49;100.00
18985;BME280;9626;52.552;13.436;2023-02-26T04:32:36;100939.38;;;-0.44;100.00
18985;BME280;9626;52.552;13.436;2023-02-26T04:35:02;100944.78;;;-0.38;100.00
18985;BME280;9626;52.552;13.436;2023-02-26T04:37:28;100951.94;;;-0.31;100.00
18985;BME280;9626;52.552;13.436;2023-02-26T04:39:54;100951.88;;;-0.32;100.00
18985;BME280;9626;52.552;13.436;2023-02-26T04:42:20;100958.91;;;-0.30;100.00
18985;BME280;9626;52.552;13.436;2023-02-26T04:44:46;100961.53;;;-0.28;100.00
18985;BME280;9626;52.552;13.436;2023-02-26T04:47:12;100958.72;;;-0.36;100.00
18985;BME280;9626;52.552;13.436;2023-02-26T04:49:38;100959.50;;;-0.39;100.00
18985;BME280;9626;52.552;13.436;2023-02-26T04:52:04;100967.38;;;-0.36;100.00
18985;BME280;9626;52.552;13.436;2023-02-26T04:54:30;100977.03;;;-0.31;100.00
18985;BME280;9626;52.552;13.436;2023-02-26T04:56:56;100972.66;;;-0.34;100.00
18985;BME280;9626;52.552;13.436;2023-02-26T04:59:22;100976.94;;;-0.36;100.00
18985;BME280;9626;52.552;13.436;2023-02-26T05:01:48;100979.59;;;-0.33;100.00
18985;BME280;9626;52.552;13.436;2023-02-26T05:04:14;100983.13;;;-0.32;100.00
18985;BME280;9626;52.552;13.436;2023-02-26T05:06:40;100990.13;;;-0.30;100.00
18985;BME280;9626;52.552;13.436;2023-02-26T05:09:06;100985.81;;;-0.29;100.00
18985;BME280;9626;52.552;13.436;2023-02-26T05:11:32;100992.78;;;-0.28;100.00
18985;BME280;9626;52.552;13.436;2023-02-26T05:13:58;100995.41;;;-0.27;100.00
18985;BME280;9626;52.552;13.436;2023-02-26T05:16:24;101002.41;;;-0.26;100.00
18985;BME280;9626;52.552;13.436;2023-02-26T05:18:50;101005.03;;;-0.24;100.00
18985;BME280;9626;52.552;13.436;2023-02-26T05:21:16;101003.19;;;-0.28;100.00
18985;BME280;9626;52.552;13.436;2023-02-26T05:23:42;101004.06;;;-0.28;100.00
18985;BME280;9626;52.552;13.436;2023-02-26T05:26:09;101016.19;;;-0.28;100.00
18985;BME280;9626;52.552;13.436;2023-02-26T05:28:35;101016.91;;;-0.34;100.00
18985;BME280;9626;52.552;13.436;2023-02-26T05:31:01;101014.44;;;-0.29;100.00
18985;BME280;9626;52.552;13.436;2023-02-26T05:33:27;101017.03;;;-0.29;100.00
18985;BME280;9626;52.552;13.436;2023-02-26T05:35:53;101011.03;;;-0.27;100.00
18985;BME280;9626;52.552;13.436;2023-02-26T05:38:19;101023.22;;;-0.26;100.00
18985;BME280;9626;52.552;13.436;2023-02-26T05:40:45;101023.22;;;-0.26;100.00
18985;BME280;9626;52.552;13.436;2023-02-26T05:43:11;101028.34;;;-0.27;100.00
18985;BME280;9626;52.552;13.436;2023-02-26T05:45:37;101034.41;;;-0.28;100.00
18985;BME280;9626;52.552;13.436;2023-02-26T05:48:03;101034.41;;;-0.28;100.00
18985;BME280;9626;52.552;13.436;2023-02-26T05:50:30;101038.72;;;-0.29;100.00
18985;BME280;9626;52.552;13.436;2023-02-26T05:52:56;101041.28;;;-0.30;100.00
18985;BME280;9626;52.552;13.436;2023-02-26T05:55:22;101046.56;;;-0.27;100.00
18985;BME280;9626;52.552;13.436;2023-02-26T05:57:48;101050.88;;;-0.29;100.00
18985;BME280;9626;52.552;13.436;2023-02-26T06:00:14;101049.78;;;-0.36;100.00
18985;BME280;9626;52.552;13.436;2023-02-26T06:02:40;101056.00;;;-0.32;100.00
18985;BME280;9626;52.552;13.436;2023-02-26T06:05:07;101063.00;;;-0.30;100.00
18985;BME280;9626;52.552;13.436;2023-02-26T06:07:33;101057.72;;;-0.31;100.00
18985;BME280;9626;52.552;13.436;2023-02-26T06:10:00;101063.97;;;-0.26;100.00
18985;BME280;9626;52.552;13.436;2023-02-26T06:12:26;101062.19;;;-0.27;100.00
18985;BME280;9626;52.552;13.436;2023-02-26T06:14:52;101076.06;;;-0.28;100.00
18985;BME280;9626;52.552;13.436;2023-02-26T06:17:18;101076.16;;;-0.25;100.00
18985;BME280;9626;52.552;13.436;2023-02-26T06:19:44;101090.00;;;-0.26;100.00
18985;BME280;9626;52.552;13.436;2023-02-26T06:22:10;101078.72;;;-0.27;100.00
18985;BME280;9626;52.552;13.436;2023-02-26T06:24:36;101086.47;;;-0.28;100.00
18985;BME280;9626;52.552;13.436;2023-02-26T06:27:02;101096.75;;;-0.31;100.00
18985;BME280;9626;52.552;13.436;2023-02-26T06:29:28;101106.44;;;-0.27;100.00
18985;BME280;9626;52.552;13.436;2023-02-26T06:31:54;101102.25;;;-0.22;100.00
18985;BME280;9626;52.552;13.436;2023-02-26T06:34:20;101106.72;;;-0.18;100.00
18985;BME280;9626;52.552;13.436;2023-02-26T06:36:47;101117.31;;;-0.13;100.00
18985;BME280;9626;52.552;13.436;2023-02-26T06:39:13;101115.47;;;-0.16;100.00
18985;BME280;9626;52.552;13.436;2023-02-26T06:41:39;101127.94;;;-0.06;100.00
18985;BME280;9626;52.552;13.436;2023-02-26T06:44:05;101123.75;;;-0.01;100.00
18985;BME280;9626;52.552;13.436;2023-02-26T06:46:31;101126.44;;;0.03;100.00
18985;BME280;9626;52.552;13.436;2023-02-26T06:48:57;101130.91;;;0.07;100.00
18985;BME280;9626;52.552;13.436;2023-02-26T06:51:23;101131.09;;;0.13;100.00
18985;BME280;9626;52.552;13.436;2023-02-26T06:53:50;101135.44;;;0.12;100.00
18985;BME280;9626;52.552;13.436;2023-02-26T06:56:16;101143.38;;;0.17;100.00
18985;BME280;9626;52.552;13.436;2023-02-26T06:58:42;101146.13;;;0.22;100.00
18985;BME280;9626;52.552;13.436;2023-02-26T07:01:08;101155.94;;;0.30;100.00
18985;BME280;9626;52.552;13.436;2023-02-26T07:03:35;101159.66;;;0.39;100.00
18985;BME280;9626;52.552;13.436;2023-02-26T07:06:01;101155.50;;;0.45;100.00
18985;BME280;9626;52.552;13.436;2023-02-26T07:08:27;101163.44;;;0.50;100.00
18985;BME280;9626;52.552;13.436;2023-02-26T07:10:53;101174.50;;;0.41;100.00
18985;BME280;9626;52.552;13.436;2023-02-26T07:13:19;101166.66;;;0.40;100.00
18985;BME280;9626;52.552;13.436;2023-02-26T07:15:45;101178.44;;;0.28;100.00
18985;BME280;9626;52.552;13.436;2023-02-26T07:18:11;101173.97;;;0.24;100.00
18985;BME280;9626;52.552;13.436;2023-02-26T07:20:37;101178.97;;;0.16;100.00
18985;BME280;9626;52.552;13.436;2023-02-26T07:23:03;101192.13;;;0.21;100.00
18985;BME280;9626;52.552;13.436;2023-02-26T07:25:29;101191.59;;;0.31;100.00
18985;BME280;9626;52.552;13.436;2023-02-26T07:27:55;101192.94;;;0.49;100.00
18985;BME280;9626;52.552;13.436;2023-02-26T07:30:23;101207.47;;;0.70;100.00
18985;BME280;9626;52.552;13.436;2023-02-26T07:32:49;101211.94;;;1.06;100.00
18985;BME280;9626;52.552;13.436;2023-02-26T07:35:15;101222.28;;;1.34;100.00
18985;BME280;9626;52.552;13.436;2023-02-26T07:37:41;101220.16;;;1.53;100.00
18985;BME280;9626;52.552;13.436;2023-02-26T07:40:07;101219.44;;;0.93;100.00
18985;BME280;9626;52.552;13.436;2023-02-26T07:42:33;101225.13;;;0.80;100.00
18985;BME280;9626;52.552;13.436;2023-02-26T07:44:59;101223.19;;;0.73;100.00
18985;BME280;9626;52.552;13.436;2023-02-26T07:47:26;101227.94;;;0.86;100.00
18985;BME280;9626;52.552;13.436;2023-02-26T07:49:52;101233.66;;;1.05;100.00
18985;BME280;9626;52.552;13.436;2023-02-26T07:52:18;101240.22;;;1.22;100.00
18985;BME280;9626;52.552;13.436;2023-02-26T07:54:44;101247.59;;;1.71;100.00
18985;BME280;9626;52.552;13.436;2023-02-26T07:57:10;101240.69;;;2.09;100.00
18985;BME280;9626;52.552;13.436;2023-02-26T07:59:36;101249.69;;;2.22;100.00
18985;BME280;9626;52.552;13.436;2023-02-26T08:02:02;101238.91;;;2.45;100.00
18985;BME280;9626;52.552;13.436;2023-02-26T08:04:28;101251.53;;;2.26;100.00
18985;BME280;9626;52.552;13.436;2023-02-26T08:06:54;101255.34;;;2.39;100.00
18985;BME280;9626;52.552;13.436;2023-02-26T08:09:22;101255.31;;;2.38;100.00
18985;BME280;9626;52.552;13.436;2023-02-26T08:11:48;101260.97;;;2.19;100.00
18985;BME280;9626;52.552;13.436;2023-02-26T08:14:14;101262.63;;;1.81;100.00
18985;BME280;9626;52.552;13.436;2023-02-26T08:16:40;101271.47;;;1.86;100.00
18985;BME280;9626;52.552;13.436;2023-02-26T08:19:06;101270.81;;;1.95;100.00
18985;BME280;9626;52.552;13.436;2023-02-26T08:21:32;101277.47;;;1.82;100.00
18985;BME280;9626;52.552;13.436;2023-02-26T08:23:58;101274.00;;;2.18;100.00
18985;BME280;9626;52.552;13.436;2023-02-26T08:26:24;101274.88;;;2.55;100.00
18985;BME280;9626;52.552;13.436;2023-02-26T08:28:50;101281.00;;;2.57;100.00
18985;BME280;9626;52.552;13.436;2023-02-26T08:31:17;101288.72;;;2.14;100.00
18985;BME280;9626;52.552;13.436;2023-02-26T08:33:43;101290.56;;;2.55;100.00
18985;BME280;9626;52.552;13.436;2023-02-26T08:36:10;101282.84;;;3.02;100.00
18985;BME280;9626;52.552;13.436;2023-02-26T08:38:39;101293.41;;;3.06;100.00
18985;BME280;9626;52.552;13.436;2023-02-26T08:41:05;101296.06;;;3.53;100.00
18985;BME280;9626;52.552;13.436;2023-02-26T08:43:34;101304.69;;;3.96;100.00
18985;BME280;9626;52.552;13.436;2023-02-26T08:46:00;101310.56;;;4.35;97.91
18985;BME280;9626;52.552;13.436;2023-02-26T08:48:26;101310.47;;;4.27;87.23
18985;BME280;9626;52.552;13.436;2023-02-26T08:51:00;101315.47;;;4.68;81.63
18985;BME280;9626;52.552;13.436;2023-02-26T08:53:53;101310.50;;;4.90;75.22
18985;BME280;9626;52.552;13.436;2023-02-26T08:56:30;101322.84;;;4.96;73.73
18985;BME280;9626;52.552;13.436;2023-02-26T08:59:09;101321.31;;;5.93;70.28
18985;BME280;9626;52.552;13.436;2023-02-26T09:01:41;101325.38;;;5.60;66.67
18985;BME280;9626;52.552;13.436;2023-02-26T09:04:10;101328.56;;;5.34;67.96
18985;BME280;9626;52.552;13.436;2023-02-26T09:06:47;101339.75;;;5.95;66.13
18985;BME280;9626;52.552;13.436;2023-02-26T09:09:24;101339.31;;;6.42;62.25
18985;BME280;9626;52.552;13.436;2023-02-26T09:11:54;101336.69;;;5.53;64.49
18985;BME280;9626;52.552;13.436;2023-02-26T09:14:20;101344.09;;;5.92;63.80
18985;BME280;9626;52.552;13.436;2023-02-26T09:16:46;101338.66;;;6.75;60.03
18985;BME280;9626;52.552;13.436;2023-02-26T09:19:15;101352.72;;;6.77;58.88
18985;BME280;9626;52.552;13.436;2023-02-26T09:22:01;101354.69;;;7.13;57.48
18985;BME280;9626;52.552;13.436;2023-02-26T09:24:54;101358.94;;;5.86;59.73
18985;BME280;9626;52.552;13.436;2023-02-26T09:27:58;101357.47;;;6.13;60.36
18985;BME280;9626;52.552;13.436;2023-02-26T09:30:37;101364.13;;;6.76;58.69
18985;BME280;9626;52.552;13.436;2023-02-26T09:33:19;101371.72;;;8.24;54.25
18985;BME280;9626;52.552;13.436;2023-02-26T09:36:13;101381.34;;;7.91;53.65
18985;BME280;9626;52.552;13.436;2023-02-26T09:38:45;101377.72;;;7.60;53.85
18985;BME280;9626;52.552;13.436;2023-02-26T09:44:26;101391.06;;;8.29;52.12
18985;BME280;9626;52.552;13.436;2023-02-26T09:47:16;101399.78;;;7.96;51.46
18985;BME280;9626;52.552;13.436;2023-02-26T09:49:51;101405.94;;;7.92;51.19
18985;BME280;9626;52.552;13.436;2023-02-26T09:52:34;101400.41;;;6.10;54.87
18985;BME280;9626;52.552;13.436;2023-02-26T09:55:08;101409.47;;;6.43;54.52
18985;BME280;9626;52.552;13.436;2023-02-26T09:57:40;101410.03;;;7.20;53.75
18985;BME280;9626;52.552;13.436;2023-02-26T10:00:23;101408.41;;;6.21;55.20
18985;BME280;9626;52.552;13.436;2023-02-26T10:05:43;101420.53;;;6.08;59.50
18985;BME280;9626;52.552;13.436;2023-02-26T10:08:15;101412.56;;;5.31;57.70
18985;BME280;9626;52.552;13.436;2023-02-26T10:11:04;101420.81;;;6.34;56.04
18985;BME280;9626;52.552;13.436;2023-02-26T10:16:12;101422.09;;;5.23;57.50
18985;BME280;9626;52.552;13.436;2023-02-26T10:19:02;101428.91;;;6.56;55.88
18985;BME280;9626;52.552;13.436;2023-02-26T10:21:35;101436.09;;;6.79;54.99
18985;BME280;9626;52.552;13.436;2023-02-26T10:24:09;101435.31;;;6.93;53.67
18985;BME280;9626;52.552;13.436;2023-02-26T10:26:54;101432.78;;;6.04;57.94
18985;BME280;9626;52.552;13.436;2023-02-26T10:29:32;101439.72;;;4.72;57.31
18985;BME280;9626;52.552;13.436;2023-02-26T10:34:46;101444.56;;;4.49;58.67
18985;BME280;9626;52.552;13.436;2023-02-26T10:37:19;101440.38;;;4.60;58.55
18985;BME280;9626;52.552;13.436;2023-02-26T10:39:50;101441.13;;;5.72;55.73
18985;BME280;9626;52.552;13.436;2023-02-26T10:42:22;101444.41;;;6.28;52.57
18985;BME280;9626;52.552;13.436;2023-02-26T10:44:59;101453.00;;;6.13;53.12
18985;BME280;9626;52.552;13.436;2023-02-26T10:50:48;101447.00;;;7.37;48.39
18985;BME280;9626;52.552;13.436;2023-02-26T10:53:14;101456.28;;;6.80;49.24
18985;BME280;9626;52.552;13.436;2023-02-26T10:58:25;101466.69;;;5.18;52.63
18985;BME280;9626;52.552;13.436;2023-02-26T11:00:53;101478.94;;;5.82;52.80
18985;BME280;9626;52.552;13.436;2023-02-26T11:03:36;101471.66;;;5.64;52.79
18985;BME280;9626;52.552;13.436;2023-02-26T11:06:04;101469.38;;;6.73;53.18
18985;BME280;9626;52.552;13.436;2023-02-26T11:08:34;101465.00;;;6.72;56.32
18985;BME280;9626;52.552;13.436;2023-02-26T11:11:03;101468.78;;;7.08;51.32
18985;BME280;9626;52.552;13.436;2023-02-26T11:13:32;101472.66;;;5.72;48.73
18985;BME280;9626;52.552;13.436;2023-02-26T11:16:10;101479.31;;;5.46;50.21
18985;BME280;9626;52.552;13.436;2023-02-26T11:18:52;101478.72;;;5.68;50.07
18985;BME280;9626;52.552;13.436;2023-02-26T11:21:33;101489.69;;;6.02;49.45
18985;BME280;9626;52.552;13.436;2023-02-26T11:24:07;101485.97;;;6.65;48.68
18985;BME280;9626;52.552;13.436;2023-02-26T11:26:37;101489.94;;;7.18;47.06
18985;BME280;9626;52.552;13.436;2023-02-26T11:29:04;101492.78;;;7.49;46.01
18985;BME280;9626;52.552;13.436;2023-02-26T11:31:31;101492.72;;;7.39;45.85
18985;BME280;9626;52.552;13.436;2023-02-26T11:34:01;101490.84;;;6.24;49.19
18985;BME280;9626;52.552;13.436;2023-02-26T11:36:30;101499.75;;;5.07;52.46
18985;BME280;9626;52.552;13.436;2023-02-26T11:39:02;101502.16;;;4.43;54.84
18985;BME280;9626;52.552;13.436;2023-02-26T11:41:35;101506.91;;;4.16;54.76
18985;BME280;9626;52.552;13.436;2023-02-26T11:44:13;101509.97;;;4.39;56.40
18985;BME280;9626;52.552;13.436;2023-02-26T11:46:45;101499.53;;;4.93;54.74
18985;BME280;9626;52.552;13.436;2023-02-26T11:49:16;101506.13;;;4.69;55.02
18985;BME280;9626;52.552;13.436;2023-02-26T11:51:45;101508.97;;;4.34;53.71
18985;BME280;9626;52.552;13.436;2023-02-26T11:54:23;101503.91;;;4.42;73.49
18985;BME280;9626;52.552;13.436;2023-02-26T11:56:50;101517.25;;;4.56;61.87
18985;BME280;9626;52.552;13.436;2023-02-26T11:59:21;101519.28;;;4.25;57.08
18985;BME280;9626;52.552;13.436;2023-02-26T12:01:49;101518.78;;;4.00;57.02
18985;BME280;9626;52.552;13.436;2023-02-26T12:04:24;101521.34;;;3.96;57.66
18985;BME280;9626;52.552;13.436;2023-02-26T12:06:52;101511.03;;;4.51;56.64
18985;BME280;9626;52.552;13.436;2023-02-26T12:09:19;101516.47;;;4.62;54.53
18985;BME280;9626;52.552;13.436;2023-02-26T12:17:15;101523.66;;;4.72;56.18
18985;BME280;9626;52.552;13.436;2023-02-26T12:19:53;101528.56;;;5.04;54.71
18985;BME280;9626;52.552;13.436;2023-02-26T12:25:35;101523.06;;;6.89;48.35
18985;BME280;9626;52.552;13.436;2023-02-26T12:28:28;101525.09;;;6.31;46.48
18985;BME280;9626;52.552;13.436;2023-02-26T12:31:13;101522.09;;;5.37;49.15
18985;BME280;9626;52.552;13.436;2023-02-26T12:42:39;101533.75;;;5.56;49.81
18985;BME280;9626;52.552;13.436;2023-02-26T12:53:53;101538.06;;;4.02;53.38
18985;BME280;9626;52.552;13.436;2023-02-26T13:00:00;101536.19;;;4.87;50.55
18985;BME280;9626;52.552;13.436;2023-02-26T13:14:31;101553.97;;;4.12;54.68
18985;BME280;9626;52.552;13.436;2023-02-26T13:17:08;101563.28;;;3.96;54.50
18985;BME280;9626;52.552;13.436;2023-02-26T13:19:51;101568.34;;;3.89;55.02
18985;BME280;9626;52.552;13.436;2023-02-26T13:22:35;101568.06;;;3.76;55.92
18985;BME280;9626;52.552;13.436;2023-02-26T13:25:39;101570.41;;;4.03;55.29
18985;BME280;9626;52.552;13.436;2023-02-26T13:28:21;101561.31;;;5.26;52.42
18985;BME280;9626;52.552;13.436;2023-02-26T13:30:52;101565.88;;;5.36;51.37
18985;BME280;9626;52.552;13.436;2023-02-26T13:33:23;101570.97;;;4.77;51.79
18985;BME280;9626;52.552;13.436;2023-02-26T13:35:52;101570.91;;;4.28;52.32
18985;BME280;9626;52.552;13.436;2023-02-26T13:38:37;101579.91;;;3.99;53.42
18985;BME280;9626;52.552;13.436;2023-02-26T13:41:11;101579.53;;;3.81;54.12
18985;BME280;9626;52.552;13.436;2023-02-26T13:43:56;101575.31;;;3.87;54.35
18985;BME280;9626;52.552;13.436;2023-02-26T13:49:29;101568.28;;;3.85;54.03
18985;BME280;9626;52.552;13.436;2023-02-26T13:51:56;101574.41;;;3.87;53.83
18985;BME280;9626;52.552;13.436;2023-02-26T13:54:42;101573.78;;;4.86;51.81
18985;BME280;9626;52.552;13.436;2023-02-26T13:57:47;101577.31;;;5.40;49.62
18985;BME280;9626;52.552;13.436;2023-02-26T14:00:26;101580.13;;;4.51;50.31
18985;BME280;9626;52.552;13.436;2023-02-26T14:02:55;101586.06;;;4.00;51.39
18985;BME280;9626;52.552;13.436;2023-02-26T14:05:34;101585.00;;;3.90;52.35
18985;BME280;9626;52.552;13.436;2023-02-26T14:10:45;101588.50;;;3.92;51.49
18985;BME280;9626;52.552;13.436;2023-02-26T14:13:35;101591.09;;;4.76;49.97
18985;BME280;9626;52.552;13.436;2023-02-26T14:23:57;101592.78;;;3.88;50.72
18985;BME280;9626;52.552;13.436;2023-02-26T14:26:27;101601.06;;;3.67;51.31
18985;BME280;9626;52.552;13.436;2023-02-26T14:29:19;101599.66;;;3.82;52.12
18985;BME280;9626;52.552;13.436;2023-02-26T14:32:13;101598.66;;;3.77;52.22
18985;BME280;9626;52.552;13.436;2023-02-26T14:37:18;101601.91;;;3.66;52.16
18985;BME280;9626;52.552;13.436;2023-02-26T14:42:33;101615.34;;;3.44;51.65
18985;BME280;9626;52.552;13.436;2023-02-26T14:47:56;101632.69;;;3.38;49.77
18985;BME280;9626;52.552;13.436;2023-02-26T14:50:22;101623.63;;;3.26;49.29
18985;BME280;9626;52.552;13.436;2023-02-26T14:58:56;101637.53;;;3.96;46.65
18985;BME280;9626;52.552;13.436;2023-02-26T15:01:47;101628.13;;;5.44;44.74
18985;BME280;9626;52.552;13.436;2023-02-26T15:05:02;101632.00;;;6.25;42.80
18985;BME280;9626;52.552;13.436;2023-02-26T15:13:04;101621.84;;;7.44;40.70
18985;BME280;9626;52.552;13.436;2023-02-26T15:23:59;101631.16;;;6.28;43.20
18985;BME280;9626;52.552;13.436;2023-02-26T15:26:34;101625.56;;;6.03;43.99
18985;BME280;9626;52.552;13.436;2023-02-26T15:29:05;101632.78;;;5.62;44.38
18985;BME280;9626;52.552;13.436;2023-02-26T15:31:53;101631.94;;;5.11;45.42
18985;BME280;9626;52.552;13.436;2023-02-26T15:34:24;101639.63;;;4.54;46.81
18985;BME280;9626;52.552;13.436;2023-02-26T15:36:52;101644.88;;;4.13;47.67
18985;BME280;9626;52.552;13.436;2023-02-26T15:39:26;101644.38;;;3.91;48.71
18985;BME280;9626;52.552;13.436;2023-02-26T15:41:55;101653.72;;;3.78;49.52
18985;BME280;9626;52.552;13.436;2023-02-26T15:44:28;101649.06;;;3.66;50.19
18985;BME280;9626;52.552;13.436;2023-02-26T15:46:58;101653.19;;;3.57;50.44